Time;durP1;ratioP1;P1;durP2;ratioP2;P2;SDS_P1;SDS_P2;PMS_P1;PMS_P2;Temp;Humidity;BMP_temperature;BMP_pressure;BME280_temperature;BME280_humidity;BME280_pressure;Samples;Min_cycle;Max_cycle;Signal;HPM_P1;HPM_P2
2021/03/19 00:04:28;;;;;;;0.57;0.57;;;;;;;;;;10194560;28;20039;-61
2021/03/19 00:09:25;;;;;;;0.70;0.70;;;;;;;;;;10210843;28;20274;-61
2021/03/19 00:14:23;;;;;;;0.30;0.30;;;;;;;;;;10198385;28;20058;-61
2021/03/19 00:19:20;;;;;;;0.63;0.63;;;;;;;;;;10181904;28;20102;-62
2021/03/19 00:24:17;;;;;;;0.37;0.37;;;;;;;;;;10196510;28;20045;-62
2021/03/19 00:29:15;;;;;;;0.60;0.60;;;;;;;;;;10186173;28;20037;-63
2021/03/19 00:34:13;;;;;;;0.73;0.73;;;;;;;;;;10202660;28;20197;-60
2021/03/19 00:39:10;;;;;;;0.63;0.40;;;;;;;;;;10207319;28;20034;-62
2021/03/19 00:44:08;;;;;;;0.80;0.80;;;;;;;;;;10195598;28;20409;-62
2021/03/19 00:49:05;;;;;;;0.53;0.53;;;;;;;;;;10196948;28;20046;-60
2021/03/19 00:54:03;;;;;;;1.97;0.60;;;;;;;;;;10208758;28;20497;-61
2021/03/19 00:59:00;;;;;;;0.40;0.40;;;;;;;;;;10180718;28;20091;-61
2021/03/19 01:03:58;;;;;;;0.67;0.43;;;;;;;;;;10198256;28;20035;-62
2021/03/19 01:08:56;;;;;;;1.93;0.73;;;;;;;;;;10193501;28;20575;-62
2021/03/19 01:13:54;;;;;;;0.47;0.35;;;;;;;;;;10200984;28;20104;-61
2021/03/19 01:18:54;;;;;;;4.00;0.40;;;;;;;;;;10201886;28;20096;-61
2021/03/19 01:23:52;;;;;;;2.65;0.75;;;;;;;;;;10199694;28;20042;-63
2021/03/19 01:28:49;;;;;;;0.90;0.60;;;;;;;;;;10216830;28;20034;-63
2021/03/19 01:33:47;;;;;;;0.50;0.50;;;;;;;;;;10222907;28;20049;-63
2021/03/19 01:38:44;;;;;;;1.63;0.83;;;;;;;;;;10204633;28;21087;-62
2021/03/19 01:43:54;;;;;;;0.53;0.43;;;;;;;;;;10188462;28;20297;-61
2021/03/19 01:49:10;;;;;;;0.45;0.45;;;;;;;;;;10195768;28;20226;-60
2021/03/19 01:54:26;;;;;;;0.88;0.82;;;;;;;;;;10211278;28;20069;-62
2021/03/19 01:59:42;;;;;;;1.00;0.77;;;;;;;;;;10204080;28;20567;-62
2021/03/19 02:04:58;;;;;;;1.15;1.05;;;;;;;;;;10201458;28;20038;-62
2021/03/19 02:10:14;;;;;;;0.60;0.57;;;;;;;;;;10198051;28;20049;-64
2021/03/19 02:15:30;;;;;;;1.05;0.68;;;;;;;;;;10217715;28;20049;-63
2021/03/19 02:20:46;;;;;;;0.68;0.65;;;;;;;;;;10205141;28;20047;-61
2021/03/19 02:26:02;;;;;;;0.88;0.88;;;;;;;;;;10224656;28;20047;-62
2021/03/19 02:31:14;;;;;;;4.57;1.40;;;;;;;;;;10227228;28;20578;-62
2021/03/19 02:36:12;;;;;;;0.63;0.63;;;;;;;;;;10214070;28;20030;-63
2021/03/19 02:41:10;;;;;;;1.25;0.82;;;;;;;;;;10208269;28;20213;-62
2021/03/19 02:46:08;;;;;;;0.33;0.30;;;;;;;;;;10220084;28;20038;-61
2021/03/19 02:51:06;;;;;;;0.60;0.60;;;;;;;;;;10229863;28;20088;-60
2021/03/19 02:56:07;;;;;;;0.85;0.73;;;;;;;;;;10221593;28;20535;-63
2021/03/19 03:01:05;;;;;;;0.82;0.80;;;;;;;;;;10211539;28;20431;-62
2021/03/19 03:06:03;;;;;;;1.00;0.93;;;;;;;;;;10209741;28;20038;-62
2021/03/19 03:11:00;;;;;;;1.23;0.97;;;;;;;;;;10205124;28;20031;-64
2021/03/19 03:15:58;;;;;;;1.17;0.95;;;;;;;;;;10212568;28;20046;-63
2021/03/19 03:20:57;;;;;;;1.10;0.97;;;;;;;;;;10204948;28;20053;-62
2021/03/19 03:25:55;;;;;;;1.27;0.80;;;;;;;;;;10205501;28;20038;-62
2021/03/19 03:30:54;;;;;;;1.17;0.82;;;;;;;;;;10209159;28;20034;-62
2021/03/19 03:35:52;;;;;;;1.10;1.00;;;;;;;;;;10209764;28;20045;-62
2021/03/19 03:41:09;;;;;;;1.40;0.97;;;;;;;;;;10203079;28;20413;-62
2021/03/19 03:46:08;;;;;;;1.00;0.82;;;;;;;;;;10203787;28;20121;-61
2021/03/19 03:51:07;;;;;;;1.85;1.42;;;;;;;;;;10199908;28;20094;-62
2021/03/19 03:56:05;;;;;;;1.20;0.88;;;;;;;;;;10221332;28;20034;-63
2021/03/19 04:01:03;;;;;;;1.33;1.07;;;;;;;;;;10211703;28;20436;-60
2021/03/19 04:06:00;;;;;;;0.68;0.68;;;;;;;;;;10198760;28;20133;-62
2021/03/19 04:11:00;;;;;;;0.60;0.60;;;;;;;;;;10211950;28;20224;-61
2021/03/19 04:15:59;;;;;;;0.63;0.63;;;;;;;;;;10198484;28;20034;-61
2021/03/19 04:20:56;;;;;;;;;;;;;;;;;;10208520;28;20046;-60
2021/03/19 04:25:54;;;;;;;1.67;0.95;;;;;;;;;;10206171;28;19918;-59
2021/03/19 04:30:51;;;;;;;3.17;1.47;;;;;;;;;;10223371;28;20432;-60
2021/03/19 04:35:58;;;;;;;1.30;0.87;;;;;;;;;;10216683;28;20089;-59
2021/03/19 04:40:55;;;;;;;0.95;0.82;;;;;;;;;;10196773;28;20305;-60
2021/03/19 04:45:53;;;;;;;0.70;0.70;;;;;;;;;;10200200;28;20189;-63
2021/03/19 04:50:50;;;;;;;0.70;0.67;;;;;;;;;;10201087;28;20022;-61
2021/03/19 04:55:47;;;;;;;0.50;0.50;;;;;;;;;;10202339;28;20038;-60
2021/03/19 05:00:45;;;;;;;0.57;0.57;;;;;;;;;;10219494;28;20038;-60
2021/03/19 05:05:42;;;;;;;1.20;0.80;;;;;;;;;;10202736;28;20030;-62
2021/03/19 05:10:40;;;;;;;0.50;0.50;;;;;;;;;;10217469;28;20058;-60
2021/03/19 05:15:39;;;;;;;0.98;0.68;;;;;;;;;;10210841;28;20034;-61
2021/03/19 05:20:36;;;;;;;0.95;0.95;;;;;;;;;;10220723;28;20528;-62
2021/03/19 05:25:34;;;;;;;1.43;1.00;;;;;;;;;;10203980;28;20043;-62
2021/03/19 05:30:31;;;;;;;1.70;0.93;;;;;;;;;;10213913;28;20706;-62
2021/03/19 05:35:28;;;;;;;0.80;0.70;;;;;;;;;;10227390;28;20030;-63
2021/03/19 05:40:38;;;;;;;0.50;0.40;;;;;;;;;;10214734;28;20100;-63
2021/03/19 05:45:36;;;;;;;0.80;0.80;;;;;;;;;;10190087;28;20055;-62
2021/03/19 05:50:34;;;;;;;1.40;1.30;;;;;;;;;;10211203;28;20448;-63
2021/03/19 05:55:35;;;;;;;1.65;1.02;;;;;;;;;;10198459;28;20468;-63
2021/03/19 06:00:32;;;;;;;1.83;1.52;;;;;;;;;;10200445;28;20076;-62
2021/03/19 06:05:30;;;;;;;2.77;1.60;;;;;;;;;;10200556;28;20065;-61
2021/03/19 06:10:30;;;;;;;1.83;1.58;;;;;;;;;;10195391;28;20038;-61
2021/03/19 06:15:32;;;;;;;0.82;0.80;;;;;;;;;;10203799;28;20505;-62
2021/03/19 06:20:30;;;;;;;0.52;0.52;;;;;;;;;;10207051;28;20061;-61
2021/03/19 06:25:31;;;;;;;0.30;0.30;;;;;;;;;;10193823;28;20053;-61
2021/03/19 06:30:37;;;;;;;1.17;1.08;;;;;;;;;;10222819;28;20527;-59
2021/03/19 06:35:36;;;;;;;0.75;0.63;;;;;;;;;;10225773;28;20511;-58
2021/03/19 06:40:33;;;;;;;1.23;1.13;;;;;;;;;;10219821;28;20146;-59
2021/03/19 06:45:31;;;;;;;2.57;0.80;;;;;;;;;;10223818;28;20121;-60
2021/03/19 06:50:28;;;;;;;7.37;1.07;;;;;;;;;;10217205;28;20046;-60
2021/03/19 06:55:32;;;;;;;0.93;0.80;;;;;;;;;;10218612;28;20508;-62
2021/03/19 07:00:34;;;;;;;1.17;0.80;;;;;;;;;;10222058;28;20716;-64
2021/03/19 07:05:34;;;;;;;0.63;0.63;;;;;;;;;;10189406;28;20065;-62
2021/03/19 07:10:32;;;;;;;2.30;1.27;;;;;;;;;;10176335;28;20201;-64
2021/03/19 07:15:35;;;;;;;0.50;0.50;;;;;;;;;;10208515;28;20042;-64
2021/03/19 07:20:41;;;;;;;1.60;1.02;;;;;;;;;;10208405;28;20706;-64
2021/03/19 07:25:55;;;;;;;0.90;0.90;;;;;;;;;;10213746;28;21143;-62
2021/03/19 07:31:11;;;;;;;0.80;0.80;;;;;;;;;;10238125;23;20066;-66
2021/03/19 07:36:27;;;;;;;3.88;1.35;;;;;;;;;;10242007;28;20049;-66
2021/03/19 07:41:32;;;;;;;2.08;1.05;;;;;;;;;;10260540;28;20547;-65
2021/03/19 07:46:29;;;;;;;4.18;0.95;;;;;;;;;;10261513;28;20114;-63
2021/03/19 07:51:30;;;;;;;1.33;1.20;;;;;;;;;;10260621;28;20034;-64
2021/03/19 07:56:46;;;;;;;5.10;1.67;;;;;;;;;;10246338;28;20035;-64
2021/03/19 08:01:49;;;;;;;5.30;2.08;;;;;;;;;;10217064;23;20086;-63
2021/03/19 08:06:57;;;;;;;7.25;2.28;;;;;;;;;;10174577;28;20050;-63
2021/03/19 08:12:01;;;;;;;2.72;1.98;;;;;;;;;;10168301;28;20130;-62
2021/03/19 08:17:02;;;;;;;2.83;2.17;;;;;;;;;;10149998;28;20118;-61
2021/03/19 08:22:18;;;;;;;7.13;2.53;;;;;;;;;;10150690;28;20046;-62
2021/03/19 08:27:35;;;;;;;4.43;2.05;;;;;;;;;;10151843;28;20383;-63
2021/03/19 08:32:42;;;;;;;1.73;1.55;;;;;;;;;;10163721;28;20492;-63
2021/03/19 08:37:50;;;;;;;5.95;1.73;;;;;;;;;;10168759;28;20106;-63
2021/03/19 08:42:49;;;;;;;2.47;1.08;;;;;;;;;;10162840;28;20039;-62
2021/03/19 08:47:48;;;;;;;5.00;1.88;;;;;;;;;;10160289;28;20047;-61
2021/03/19 08:53:03;;;;;;;1.85;1.23;;;;;;;;;;10155264;28;20536;-63
2021/03/19 08:58:19;;;;;;;2.65;1.10;;;;;;;;;;10154298;28;20054;-64
2021/03/19 09:03:36;;;;;;;1.63;1.02;;;;;;;;;;10157083;28;20479;-65
2021/03/19 09:08:42;;;;;;;1.20;1.08;;;;;;;;;;10161581;28;20031;-63
2021/03/19 09:14:06;;;;;;;1.70;1.38;;;;;;;;;;10149069;28;20121;-63
2021/03/19 09:19:23;;;;;;;3.20;1.38;;;;;;;;;;10147971;28;20039;-65
2021/03/19 09:24:25;;;;;;;2.63;1.30;;;;;;;;;;10166501;28;20073;-62
2021/03/19 09:29:28;;;;;;;2.53;1.25;;;;;;;;;;10160017;28;20085;-64
2021/03/19 09:34:47;;;;;;;1.95;0.85;;;;;;;;;;10163743;28;20062;-64
2021/03/19 09:39:46;;;;;;;0.85;0.82;;;;;;;;;;10160077;28;20413;-64
2021/03/19 09:44:44;;;;;;;1.38;0.90;;;;;;;;;;10139888;28;20043;-65
2021/03/19 09:49:42;;;;;;;2.63;0.95;;;;;;;;;;10145691;28;20505;-65
2021/03/19 09:54:40;;;;;;;0.90;0.90;;;;;;;;;;10146928;28;20073;-64
2021/03/19 09:59:41;;;;;;;2.95;0.90;;;;;;;;;;10140473;28;20142;-65
2021/03/19 10:04:39;;;;;;;3.10;1.10;;;;;;;;;;10149050;28;20069;-65
2021/03/19 10:09:42;;;;;;;1.45;1.25;;;;;;;;;;10155731;28;20039;-66
2021/03/19 10:14:40;;;;;;;3.03;1.02;;;;;;;;;;10149707;28;20604;-64
2021/03/19 10:19:39;;;;;;;2.05;0.98;;;;;;;;;;10145291;28;20192;-64
2021/03/19 10:24:37;;;;;;;1.02;0.90;;;;;;;;;;10145365;28;20138;-64
2021/03/19 10:29:36;;;;;;;0.87;0.83;;;;;;;;;;10143265;28;20049;-65
2021/03/19 10:34:36;;;;;;;2.05;1.00;;;;;;;;;;10150588;28;20318;-64
2021/03/19 10:39:36;;;;;;;0.73;0.43;;;;;;;;;;10147343;28;20046;-64
2021/03/19 10:44:39;;;;;;;1.17;0.75;;;;;;;;;;10144503;28;20261;-63
2021/03/19 10:49:37;;;;;;;4.88;2.60;;;;;;;;;;10145165;28;20043;-64
2021/03/19 10:54:40;;;;;;;1.43;1.10;;;;;;;;;;10132045;28;20046;-64
2021/03/19 10:59:38;;;;;;;1.67;0.90;;;;;;;;;;10136690;28;20050;-63
2021/03/19 11:04:37;;;;;;;2.40;0.90;;;;;;;;;;10145753;28;20042;-62
2021/03/19 11:09:35;;;;;;;1.33;0.80;;;;;;;;;;10157767;28;20394;-63
2021/03/19 11:14:33;;;;;;;1.05;0.93;;;;;;;;;;10155614;28;20043;-62
2021/03/19 11:19:31;;;;;;;1.90;0.57;;;;;;;;;;10147740;28;20125;-63
2021/03/19 11:24:33;;;;;;;1.03;0.40;;;;;;;;;;10147873;28;20042;-62
2021/03/19 11:29:32;;;;;;;0.85;0.45;;;;;;;;;;10139888;28;20130;-63
2021/03/19 11:34:48;;;;;;;0.65;0.50;;;;;;;;;;10150026;28;20039;-62
2021/03/19 11:39:58;;;;;;;0.57;0.30;;;;;;;;;;10150398;28;20516;-61
2021/03/19 11:45:01;;;;;;;0.60;0.52;;;;;;;;;;10163028;28;20080;-63
2021/03/19 11:50:14;;;;;;;0.95;0.40;;;;;;;;;;10148289;28;20564;-63
2021/03/19 11:55:16;;;;;;;0.40;0.40;;;;;;;;;;10147412;28;20416;-61
2021/03/19 12:00:17;;;;;;;0.30;0.30;;;;;;;;;;10158977;28;20520;-63
2021/03/19 12:05:15;;;;;;;0.43;0.40;;;;;;;;;;10144086;28;20038;-62
2021/03/19 12:10:13;;;;;;;0.53;0.50;;;;;;;;;;10132849;28;21162;-61
2021/03/19 12:15:13;;;;;;;0.50;0.23;;;;;;;;;;10144025;28;20298;-62
2021/03/19 12:20:11;;;;;;;1.75;0.20;;;;;;;;;;10138865;28;20643;-62
2021/03/19 12:25:14;;;;;;;2.50;0.35;;;;;;;;;;10153529;28;20065;-62
2021/03/19 12:30:12;;;;;;;0.43;0.40;;;;;;;;;;10144813;28;20083;-61
2021/03/19 12:35:09;;;;;;;0.73;0.30;;;;;;;;;;10145854;28;20042;-64
2021/03/19 12:40:09;;;;;;;0.90;0.20;;;;;;;;;;10151697;28;20066;-65
2021/03/19 12:45:07;;;;;;;1.48;0.40;;;;;;;;;;10154033;28;20042;-64
2021/03/19 12:50:05;;;;;;;0.52;0.22;;;;;;;;;;10151255;28;20563;-61
2021/03/19 12:55:04;;;;;;;1.48;0.50;;;;;;;;;;10152274;28;20387;-64
2021/03/19 13:00:03;;;;;;;2.63;0.45;;;;;;;;;;10142908;28;20051;-64
2021/03/19 13:05:00;;;;;;;0.98;0.40;;;;;;;;;;10146445;28;20118;-64
2021/03/19 13:09:58;;;;;;;0.50;0.32;;;;;;;;;;10150405;28;20133;-63
2021/03/19 13:14:56;;;;;;;1.03;0.40;;;;;;;;;;10155923;28;20158;-63
2021/03/19 13:19:54;;;;;;;1.43;0.67;;;;;;;;;;10154133;28;20097;-63
2021/03/19 13:24:51;;;;;;;2.00;0.68;;;;;;;;;;10149328;28;20504;-63
2021/03/19 13:29:48;;;;;;;1.90;0.90;;;;;;;;;;10156544;28;20094;-61
2021/03/19 13:34:46;;;;;;;3.10;0.63;;;;;;;;;;10160398;28;20039;-61
2021/03/19 13:39:43;;;;;;;0.30;0.30;;;;;;;;;;10156942;28;20501;-61
2021/03/19 13:44:41;;;;;;;0.93;0.40;;;;;;;;;;10179972;28;20437;-64
2021/03/19 13:49:38;;;;;;;1.80;0.73;;;;;;;;;;10149027;28;20039;-65
2021/03/19 13:54:35;;;;;;;0.50;0.40;;;;;;;;;;10158924;28;20038;-64
2021/03/19 13:59:33;;;;;;;0.30;0.30;;;;;;;;;;10151299;28;20134;-63
2021/03/19 14:04:30;;;;;;;0.30;0.30;;;;;;;;;;10137728;28;20086;-63
2021/03/19 14:09:28;;;;;;;0.67;0.47;;;;;;;;;;10156979;28;20041;-63
2021/03/19 14:14:25;;;;;;;1.23;0.50;;;;;;;;;;10161112;28;20042;-63
2021/03/19 14:19:23;;;;;;;0.27;0.27;;;;;;;;;;10159715;28;20178;-63
2021/03/19 14:24:20;;;;;;;1.17;0.50;;;;;;;;;;10159332;28;20031;-63
2021/03/19 14:29:17;;;;;;;0.30;0.30;;;;;;;;;;10153742;28;21018;-63
2021/03/19 14:34:15;;;;;;;1.30;0.50;;;;;;;;;;10173564;28;20421;-63
2021/03/19 14:39:12;;;;;;;0.37;0.37;;;;;;;;;;10152965;28;20522;-63
2021/03/19 14:44:10;;;;;;;0.40;0.30;;;;;;;;;;10167111;28;20038;-64
2021/03/19 14:49:07;;;;;;;0.63;0.40;;;;;;;;;;10167871;28;20042;-64
2021/03/19 14:54:05;;;;;;;0.53;0.50;;;;;;;;;;10163098;28;20046;-63
2021/03/19 14:59:02;;;;;;;0.23;0.23;;;;;;;;;;10144018;28;20034;-64
2021/03/19 15:03:59;;;;;;;0.43;0.40;;;;;;;;;;10161576;28;20085;-63
2021/03/19 15:08:57;;;;;;;1.17;0.40;;;;;;;;;;10172270;28;20049;-63
2021/03/19 15:13:54;;;;;;;0.57;0.37;;;;;;;;;;10180885;28;20420;-63
2021/03/19 15:18:52;;;;;;;0.50;0.50;;;;;;;;;;10169914;28;20082;-64
2021/03/19 15:23:52;;;;;;;1.23;0.50;;;;;;;;;;10143947;28;20102;-64
2021/03/19 15:28:50;;;;;;;1.00;0.50;;;;;;;;;;10147758;28;20185;-64
2021/03/19 15:33:48;;;;;;;0.30;0.30;;;;;;;;;;10161796;28;20080;-64
2021/03/19 15:38:45;;;;;;;0.60;0.40;;;;;;;;;;10158881;28;20484;-64
2021/03/19 15:43:43;;;;;;;1.10;0.50;;;;;;;;;;10163585;28;20049;-64
2021/03/19 15:48:43;;;;;;;0.35;0.25;;;;;;;;;;10148725;28;20037;-63
2021/03/19 15:53:40;;;;;;;0.68;0.60;;;;;;;;;;10150458;28;20043;-64
2021/03/19 15:58:38;;;;;;;1.77;0.60;;;;;;;;;;10154757;28;20514;-64
2021/03/19 16:03:35;;;;;;;0.90;0.60;;;;;;;;;;10160259;28;20060;-64
2021/03/19 16:08:33;;;;;;;1.13;1.03;;;;;;;;;;10143437;28;20034;-64
2021/03/19 16:13:31;;;;;;;0.85;0.30;;;;;;;;;;10156047;28;20101;-64
2021/03/19 16:18:29;;;;;;;0.40;0.30;;;;;;;;;;10157560;28;20039;-64
2021/03/19 16:23:27;;;;;;;0.20;0.20;;;;;;;;;;10149806;28;20034;-64
2021/03/19 16:28:26;;;;;;;0.33;0.33;;;;;;;;;;10156140;28;20509;-64
2021/03/19 16:33:24;;;;;;;2.55;0.65;;;;;;;;;;10155112;28;20549;-63
2021/03/19 16:38:23;;;;;;;0.20;0.20;;;;;;;;;;10152893;28;20109;-64
2021/03/19 16:43:20;;;;;;;2.40;0.98;;;;;;;;;;10150571;28;20416;-63
2021/03/19 16:48:20;;;;;;;3.77;1.10;;;;;;;;;;10166176;28;20038;-65
2021/03/19 16:53:20;;;;;;;1.35;1.00;;;;;;;;;;10152487;28;20362;-62
2021/03/19 16:58:19;;;;;;;2.42;1.02;;;;;;;;;;10164266;28;20093;-64
2021/03/19 17:03:16;;;;;;;;;;;;;;;;;;10156156;28;20035;-64
2021/03/19 17:08:13;;;;;;;2.38;1.00;;;;;;;;;;10168329;28;19921;-64
2021/03/19 17:13:12;;;;;;;2.27;1.00;;;;;;;;;;10151105;28;20034;-65
2021/03/19 17:18:10;;;;;;;0.93;0.93;;;;;;;;;;10163292;28;20101;-64
2021/03/19 17:23:08;;;;;;;2.88;0.80;;;;;;;;;;10148246;28;20098;-64
2021/03/19 17:28:07;;;;;;;1.90;1.30;;;;;;;;;;10143561;28;20110;-64
2021/03/19 17:33:04;;;;;;;1.52;0.90;;;;;;;;;;10135626;28;20134;-64
2021/03/19 17:38:05;;;;;;;0.83;0.50;;;;;;;;;;10139104;28;20045;-63
2021/03/19 17:43:04;;;;;;;2.97;1.20;;;;;;;;;;10156374;28;20042;-63
2021/03/19 17:48:02;;;;;;;2.45;0.90;;;;;;;;;;10161078;28;20552;-62
2021/03/19 17:53:00;;;;;;;3.20;1.13;;;;;;;;;;10138796;28;20062;-62
2021/03/19 17:57:58;;;;;;;2.13;0.93;;;;;;;;;;10148679;28;20046;-61
2021/03/19 18:02:55;;;;;;;1.20;1.00;;;;;;;;;;10133753;28;20061;-61
2021/03/19 18:07:52;;;;;;;11.43;3.90;;;;;;;;;;10147158;28;20294;-61
2021/03/19 18:12:51;;;;;;;1.40;0.93;;;;;;;;;;10152635;28;20434;-62
2021/03/19 18:17:51;;;;;;;0.20;0.20;;;;;;;;;;10140939;28;20050;-61
2021/03/19 18:22:50;;;;;;;1.20;1.10;;;;;;;;;;10150849;28;20393;-60
2021/03/19 18:27:49;;;;;;;1.98;0.63;;;;;;;;;;10158635;28;20031;-61
2021/03/19 18:32:46;;;;;;;0.82;0.80;;;;;;;;;;10153590;28;20038;-59
2021/03/19 18:37:44;;;;;;;0.57;0.40;;;;;;;;;;10156555;28;20406;-60
2021/03/19 18:42:41;;;;;;;0.93;0.63;;;;;;;;;;10150610;28;20027;-59
2021/03/19 18:47:38;;;;;;;0.50;0.50;;;;;;;;;;10147067;28;20077;-63
2021/03/19 18:52:36;;;;;;;0.37;0.37;;;;;;;;;;10136455;28;20031;-60
2021/03/19 18:57:34;;;;;;;0.37;0.37;;;;;;;;;;10121044;28;20501;-61
2021/03/19 19:02:31;;;;;;;0.35;0.35;;;;;;;;;;10144308;28;20057;-61
2021/03/19 19:07:29;;;;;;;1.63;0.83;;;;;;;;;;10141736;28;20058;-63
2021/03/19 19:12:29;;;;;;;0.77;0.73;;;;;;;;;;10170552;28;20043;-62
2021/03/19 19:17:27;;;;;;;0.85;0.77;;;;;;;;;;10140387;28;20042;-61
2021/03/19 19:22:24;;;;;;;0.47;0.47;;;;;;;;;;10149965;28;20038;-57
2021/03/19 19:27:22;;;;;;;0.67;0.67;;;;;;;;;;10159377;28;20109;-58
2021/03/19 19:32:19;;;;;;;0.53;0.37;;;;;;;;;;10148038;28;20043;-60
2021/03/19 19:37:17;;;;;;;2.27;0.70;;;;;;;;;;10162643;28;20027;-59
2021/03/19 19:42:14;;;;;;;0.33;0.33;;;;;;;;;;10147577;28;20035;-60
2021/03/19 19:47:11;;;;;;;2.00;0.60;;;;;;;;;;10145994;28;20042;-60
2021/03/19 19:52:11;;;;;;;0.40;0.40;;;;;;;;;;10154341;28;20035;-63
2021/03/19 19:57:08;;;;;;;0.40;0.40;;;;;;;;;;10151807;28;20524;-61
2021/03/19 20:02:08;;;;;;;0.30;0.30;;;;;;;;;;10118950;28;20065;-61
2021/03/19 20:07:06;;;;;;;0.40;0.40;;;;;;;;;;10129926;28;20034;-62
2021/03/19 20:12:03;;;;;;;0.10;0.10;;;;;;;;;;10092287;28;20553;-61
2021/03/19 20:17:01;;;;;;;0.67;0.67;;;;;;;;;;10151503;28;20306;-61
2021/03/19 20:21:58;;;;;;;2.00;0.47;;;;;;;;;;10140193;28;20030;-61
2021/03/19 20:26:55;;;;;;;0.13;0.13;;;;;;;;;;10135482;28;20042;-61
2021/03/19 20:31:56;;;;;;;0.50;0.50;;;;;;;;;;10142742;28;20360;-61
2021/03/19 20:36:55;;;;;;;0.20;0.20;;;;;;;;;;10164577;23;20037;-64
2021/03/19 20:41:53;;;;;;;0.13;0.13;;;;;;;;;;10240577;28;20104;-64
2021/03/19 20:46:51;;;;;;;1.08;0.80;;;;;;;;;;10244287;28;20597;-63
2021/03/19 20:51:50;;;;;;;0.73;0.73;;;;;;;;;;10220716;28;20070;-63
2021/03/19 20:56:48;;;;;;;0.35;0.35;;;;;;;;;;10224555;28;20057;-63
2021/03/19 21:01:48;;;;;;;0.20;0.20;;;;;;;;;;10228641;28;20034;-64
2021/03/19 21:06:56;;;;;;;3.58;0.57;;;;;;;;;;10236914;28;20157;-64
2021/03/19 21:11:56;;;;;;;0.68;0.68;;;;;;;;;;10213686;28;20050;-64
2021/03/19 21:16:58;;;;;;;0.28;0.28;;;;;;;;;;10193519;28;20045;-64
2021/03/19 21:21:56;;;;;;;1.90;1.75;;;;;;;;;;10228434;28;20121;-64
2021/03/19 21:26:53;;;;;;;0.30;0.30;;;;;;;;;;10220645;28;20121;-63
2021/03/19 21:31:50;;;;;;;0.37;0.37;;;;;;;;;;10224728;28;20773;-64
2021/03/19 21:36:48;;;;;;;0.30;0.30;;;;;;;;;;10218253;28;20045;-64
2021/03/19 21:41:45;;;;;;;0.20;0.20;;;;;;;;;;10210911;28;20386;-64
2021/03/19 21:46:43;;;;;;;0.53;0.53;;;;;;;;;;10208858;28;20030;-64
2021/03/19 21:51:41;;;;;;;0.68;0.68;;;;;;;;;;10234798;28;20042;-63
2021/03/19 21:56:38;;;;;;;0.20;0.20;;;;;;;;;;10217568;28;20767;-64
2021/03/19 22:01:36;;;;;;;0.47;0.40;;;;;;;;;;10233618;28;20429;-64
2021/03/19 22:06:33;;;;;;;0.97;0.30;;;;;;;;;;10229982;28;20026;-62
2021/03/19 22:11:31;;;;;;;0.90;0.77;;;;;;;;;;10213261;28;20112;-63
2021/03/19 22:16:29;;;;;;;0.97;0.73;;;;;;;;;;10205411;28;20185;-63
2021/03/19 22:21:29;;;;;;;0.85;0.52;;;;;;;;;;10224365;28;20035;-63
2021/03/19 22:26:29;;;;;;;1.10;1.02;;;;;;;;;;10198490;28;20464;-63
2021/03/19 22:31:27;;;;;;;0.32;0.32;;;;;;;;;;10207850;28;20585;-63
2021/03/19 22:36:25;;;;;;;0.93;0.73;;;;;;;;;;10201388;28;20124;-63
2021/03/19 22:41:23;;;;;;;1.65;0.60;;;;;;;;;;10223611;28;20032;-63
2021/03/19 22:46:21;;;;;;;0.43;0.43;;;;;;;;;;10226948;28;20512;-63
2021/03/19 22:51:19;;;;;;;1.88;0.75;;;;;;;;;;10227467;28;20049;-64
2021/03/19 22:56:17;;;;;;;0.20;0.20;;;;;;;;;;10232069;28;20046;-64
2021/03/19 23:01:19;;;;;;;0.40;0.40;;;;;;;;;;10214191;28;20103;-64
2021/03/19 23:06:18;;;;;;;0.75;0.75;;;;;;;;;;10194611;28;20042;-64
2021/03/19 23:11:20;;;;;;;1.85;1.17;;;;;;;;;;10217473;28;20038;-64
2021/03/19 23:16:19;;;;;;;1.92;1.73;;;;;;;;;;10215674;28;20070;-64
2021/03/19 23:21:18;;;;;;;5.88;2.08;;;;;;;;;;10214926;28;20105;-64
2021/03/19 23:26:30;;;;;;;1.70;1.25;;;;;;;;;;10221390;28;20077;-64
2021/03/19 23:31:28;;;;;;;1.85;1.23;;;;;;;;;;10222826;28;20030;-64
2021/03/19 23:36:26;;;;;;;1.60;1.03;;;;;;;;;;10180906;28;20030;-64
2021/03/19 23:41:24;;;;;;;0.75;0.75;;;;;;;;;;10235425;28;20033;-61
2021/03/19 23:46:27;;;;;;;1.08;1.08;;;;;;;;;;10215598;28;20395;-59
2021/03/19 23:51:25;;;;;;;1.55;0.60;;;;;;;;;;10206380;28;20030;-61
2021/03/19 23:56:23;;;;;;;0.50;0.50;;;;;;;;;;10228617;28;20030;-61
